Time;durP1;ratioP1;P1;durP2;ratioP2;P2;SDS_P1;SDS_P2;PMS_P1;PMS_P2;Temp;Humidity;BMP_temperature;BMP_pressure;BME280_temperature;BME280_humidity;BME280_pressure;Samples;Min_cycle;Max_cycle;Signal;HPM_P1;HPM_P2
2022/08/03 00:00:53;;;;;;;;;;;;;;;22.94;44.17;101496.91;5053652;28;19917;-57
2022/08/03 00:03:19;;;;;;;;;;;;;;;22.90;44.33;101484.81;5047360;28;20003;-56
2022/08/03 00:05:44;;;;;;;;;;;;;;;22.88;44.40;101490.31;5044614;28;20016;-59
2022/08/03 00:08:09;;;;;;;;;;;;;;;22.84;44.43;101487.09;5049986;28;19932;-58
2022/08/03 00:10:35;;;;;;;;;;;;;;;22.82;44.62;101496.28;5053478;28;19939;-57
2022/08/03 00:13:00;;;;;;;;;;;;;;;22.80;44.79;101490.22;5037285;28;19917;-57
2022/08/03 00:15:25;;;;;;;;;;;;;;;22.79;44.77;101489.38;5053853;28;19917;-62
2022/08/03 00:17:50;;;;;;;;;;;;;;;22.78;45.00;101485.00;5053690;28;19913;-60
2022/08/03 00:20:16;;;;;;;;;;;;;;;22.77;44.89;101488.69;5052701;28;20479;-62
2022/08/03 00:22:41;;;;;;;;;;;;;;;22.73;44.87;101492.69;5053389;28;19916;-62
2022/08/03 00:25:06;;;;;;;;;;;;;;;22.72;45.09;101490.13;5053634;28;19916;-63
2022/08/03 00:27:32;;;;;;;;;;;;;;;22.69;45.16;101480.56;5053469;28;19917;-59
2022/08/03 00:29:58;;;;;;;;;;;;;;;22.68;45.14;101481.53;5045591;28;19917;-58
2022/08/03 00:32:23;;;;;;;;;;;;;;;22.68;45.41;101484.22;5048809;28;19924;-58
2022/08/03 00:34:48;;;;;;;;;;;;;;;22.66;45.56;101475.47;5050495;28;19920;-58
2022/08/03 00:37:13;;;;;;;;;;;;;;;22.64;45.66;101477.47;5046576;28;19917;-57
2022/08/03 00:39:39;;;;;;;;;;;;;;;22.61;45.92;101470.56;5053450;28;19948;-59
2022/08/03 00:42:05;;;;;;;;;;;;;;;22.59;46.04;101469.03;5052704;28;19944;-55
2022/08/03 00:44:31;;;;;;;;;;;;;;;22.56;46.25;101474.69;5053185;28;19916;-58
2022/08/03 00:46:56;;;;;;;;;;;;;;;22.53;46.38;101479.38;5053187;28;19952;-57
2022/08/03 00:49:22;;;;;;;;;;;;;;;22.52;46.64;101475.00;5053239;28;19916;-57
2022/08/03 00:51:47;;;;;;;;;;;;;;;22.51;46.77;101480.53;5052560;28;19962;-57
2022/08/03 00:54:13;;;;;;;;;;;;;;;22.49;46.83;101475.28;5052027;28;19933;-56
2022/08/03 00:56:39;;;;;;;;;;;;;;;22.44;47.18;101477.59;5052830;28;20069;-62
2022/08/03 00:59:05;;;;;;;;;;;;;;;22.40;47.48;101470.81;5044870;28;19955;-58
2022/08/03 01:01:30;;;;;;;;;;;;;;;22.38;47.61;101472.78;5052510;28;19960;-53
2022/08/03 01:03:56;;;;;;;;;;;;;;;22.35;47.60;101468.56;5052779;28;19917;-53
2022/08/03 01:06:44;;;;;;;;;;;;;;;22.34;47.83;101466.03;5052837;28;20003;-54
2022/08/03 01:09:22;;;;;;;;;;;;;;;22.34;48.06;101471.38;5022285;28;19929;-54
2022/08/03 01:11:54;;;;;;;;;;;;;;;22.31;48.22;101463.66;5050488;28;19966;-54
2022/08/03 01:14:22;;;;;;;;;;;;;;;22.31;47.88;101463.66;5052477;28;20016;-56
2022/08/03 01:16:55;;;;;;;;;;;;;;;22.30;48.03;101459.28;5052698;28;19924;-55
2022/08/03 01:19:27;;;;;;;;;;;;;;;22.28;48.34;101453.22;5052241;28;19917;-55
2022/08/03 01:22:11;;;;;;;;;;;;;;;22.26;48.23;101453.34;5052089;28;19955;-54
2022/08/03 01:24:39;;;;;;;;;;;;;;;22.26;48.37;101455.22;5052184;28;19923;-55
2022/08/03 01:27:07;;;;;;;;;;;;;;;22.22;48.51;101452.81;5045564;28;19967;-53
2022/08/03 01:29:42;;;;;;;;;;;;;;;22.19;48.26;101453.09;5049269;28;19916;-61
2022/08/03 01:32:09;;;;;;;;;;;;;;;22.19;48.51;101454.97;5046983;28;19920;-57
2022/08/03 01:34:38;;;;;;;;;;;;;;;22.17;48.50;101448.91;5036287;28;20474;-54
2022/08/03 01:37:05;;;;;;;;;;;;;;;22.18;48.57;101445.22;5052165;28;19920;-57
2022/08/03 01:39:31;;;;;;;;;;;;;;;22.18;48.66;101439.88;5052204;28;20509;-54
2022/08/03 01:42:05;;;;;;;;;;;;;;;22.16;48.44;101442.69;5051904;28;19978;-56
2022/08/03 01:44:32;;;;;;;;;;;;;;;22.18;48.47;101450.59;5049611;28;20051;-53
2022/08/03 01:46:58;;;;;;;;;;;;;;;22.18;48.44;101446.06;5050736;28;19913;-60
2022/08/03 01:49:24;;;;;;;;;;;;;;;22.19;48.62;101444.25;5041113;28;19917;-60
2022/08/03 01:51:50;;;;;;;;;;;;;;;22.18;48.55;101446.06;5051560;28;20398;-60
2022/08/03 01:54:17;;;;;;;;;;;;;;;22.18;48.84;101446.06;5052082;28;19917;-54
2022/08/03 01:56:43;;;;;;;;;;;;;;;22.17;48.65;101441.69;5051711;28;19920;-56
2022/08/03 01:59:10;;;;;;;;;;;;;;;22.17;48.60;101449.72;5050277;28;20416;-54
2022/08/03 02:01:36;;;;;;;;;;;;;;;22.15;48.84;101446.38;5049855;28;20377;-53
2022/08/03 02:04:02;;;;;;;;;;;;;;;22.13;48.88;101443.00;5051760;28;19917;-53
2022/08/03 02:06:29;;;;;;;;;;;;;;;22.12;49.07;101444.00;5052022;28;19917;-53
2022/08/03 02:08:56;;;;;;;;;;;;;;;22.10;49.02;101447.78;5051912;28;20308;-57
2022/08/03 02:11:22;;;;;;;;;;;;;;;22.11;49.02;101455.69;5051233;28;19935;-53
2022/08/03 02:13:49;;;;;;;;;;;;;;;22.11;49.16;101447.66;5042706;28;20347;-53
2022/08/03 02:16:16;;;;;;;;;;;;;;;22.12;49.14;101452.03;5046130;28;19917;-54
2022/08/03 02:18:42;;;;;;;;;;;;;;;22.12;49.02;101444.00;5046945;28;19924;-53
2022/08/03 02:21:09;;;;;;;;;;;;;;;22.11;49.10;101438.75;5045557;28;19925;-55
2022/08/03 02:23:35;;;;;;;;;;;;;;;22.07;48.97;101440.91;5048559;28;19925;-54
2022/08/03 02:26:02;;;;;;;;;;;;;;;22.06;49.33;101436.53;5039819;28;19951;-54
2022/08/03 02:28:33;;;;;;;;;;;;;;;22.06;49.46;101437.38;5051602;28;19920;-57
2022/08/03 02:31:01;;;;;;;;;;;;;;;22.08;49.40;101434.53;5050377;28;19960;-53
2022/08/03 02:33:31;;;;;;;;;;;;;;;22.06;49.23;101436.53;5045198;28;19928;-55
2022/08/03 02:35:58;;;;;;;;;;;;;;;22.07;49.25;101438.22;5051790;28;20466;-58
2022/08/03 02:38:26;;;;;;;;;;;;;;;22.12;49.46;101427.03;5055356;28;20376;-53
2022/08/03 02:40:54;;;;;;;;;;;;;;;22.14;49.49;101433.09;5054466;28;19919;-53
2022/08/03 02:43:21;;;;;;;;;;;;;;;22.13;49.37;101429.59;5054718;28;19925;-58
2022/08/03 02:45:48;;;;;;;;;;;;;;;22.12;49.67;101425.22;5054666;28;19924;-53
2022/08/03 02:48:19;;;;;;;;;;;;;;;22.10;49.61;101427.22;5049110;28;19917;-53
2022/08/03 02:50:45;;;;;;;;;;;;;;;22.09;49.58;101430.88;5054121;28;19917;-53
2022/08/03 02:53:12;;;;;;;;;;;;;;;22.08;49.79;101429.19;5053792;28;19924;-53
2022/08/03 02:55:38;;;;;;;;;;;;;;;22.08;49.79;101424.66;5054447;28;20330;-56
2022/08/03 02:58:04;;;;;;;;;;;;;;;22.08;49.83;101423.81;5055292;28;19921;-57
2022/08/03 03:00:32;;;;;;;;;;;;;;;22.04;49.57;101427.78;5048814;28;19924;-58
2022/08/03 03:02:58;;;;;;;;;;;;;;;22.03;49.73;101428.78;5048468;28;19924;-60
2022/08/03 03:05:24;;;;;;;;;;;;;;;22.01;49.95;101430.75;5054601;28;20315;-61
2022/08/03 03:07:50;;;;;;;;;;;;;;;21.99;49.94;101432.75;5054408;28;19923;-58
2022/08/03 03:10:15;;;;;;;;;;;;;;;21.97;49.90;101435.56;5052585;28;19916;-54
2022/08/03 03:12:41;;;;;;;;;;;;;;;21.96;49.99;101438.41;5053996;28;20372;-58
2022/08/03 03:15:06;;;;;;;;;;;;;;;21.93;49.63;101440.38;5054302;28;20398;-56
2022/08/03 03:17:32;;;;;;;;;;;;;;;21.90;49.85;101440.69;5054702;28;19919;-55
2022/08/03 03:19:58;;;;;;;;;;;;;;;21.89;49.89;101438.97;5054272;28;19924;-56
2022/08/03 03:22:23;;;;;;;;;;;;;;;21.88;49.99;101433.78;5053620;28;19952;-61
2022/08/03 03:24:50;;;;;;;;;;;;;;;21.84;49.82;101433.25;5053959;28;20117;-55
2022/08/03 03:27:16;;;;;;;;;;;;;;;21.82;49.70;101435.22;5053114;28;19956;-53
2022/08/03 03:29:42;;;;;;;;;;;;;;;21.82;49.87;101427.19;5052645;28;19967;-54
2022/08/03 03:32:07;;;;;;;;;;;;;;;21.82;49.83;101434.34;5049437;28;19917;-55
2022/08/03 03:34:33;;;;;;;;;;;;;;;21.82;49.57;101440.56;5048376;28;19986;-60
2022/08/03 03:36:58;;;;;;;;;;;;;;;21.82;49.83;101434.34;5054535;28;20016;-56
2022/08/03 03:39:23;;;;;;;;;;;;;;;21.80;49.80;101436.31;5054426;28;19917;-58
2022/08/03 03:41:49;;;;;;;;;;;;;;;21.80;49.84;101436.31;5054111;28;19968;-58
2022/08/03 03:44:14;;;;;;;;;;;;;;;21.78;49.57;101433.81;5051760;28;19960;-53
2022/08/03 03:46:40;;;;;;;;;;;;;;;21.76;49.89;101430.44;5054469;28;19920;-53
2022/08/03 03:49:08;;;;;;;;;;;;;;;21.76;49.84;101438.47;5048055;28;19996;-56
2022/08/03 03:51:33;;;;;;;;;;;;;;;21.76;49.66;101439.31;5047330;28;19946;-53
2022/08/03 03:54:00;;;;;;;;;;;;;;;21.77;49.96;101435.66;5054243;28;19921;-53
2022/08/03 03:56:26;;;;;;;;;;;;;;;21.78;49.62;101444.53;5054058;28;20000;-53
2022/08/03 03:58:51;;;;;;;;;;;;;;;21.76;50.00;101439.31;5040896;28;20417;-56
2022/08/03 04:01:17;;;;;;;;;;;;;;;21.75;49.83;101434.94;5044334;28;19920;-58
2022/08/03 04:03:42;;;;;;;;;;;;;;;21.77;50.02;101440.16;5051243;28;19951;-60
2022/08/03 04:11:38;;;;;;;;;;;;;;;21.77;49.78;101441.00;5044369;28;19923;-58
2022/08/03 04:14:24;;;;;;;;;;;;;;;21.77;49.74;101448.19;5052565;28;19962;-63
2022/08/03 04:16:52;;;;;;;;;;;;;;;21.76;49.94;101451.84;5041711;28;20277;-59
2022/08/03 04:19:21;;;;;;;;;;;;;;;21.75;49.98;101450.16;5051046;28;19978;-58
2022/08/03 04:21:49;;;;;;;;;;;;;;;21.74;50.13;101443.97;5053254;28;19912;-60
2022/08/03 04:24:15;;;;;;;;;;;;;;;21.73;50.03;101446.78;5053477;28;20288;-60
2022/08/03 04:26:42;;;;;;;;;;;;;;;21.73;50.16;101447.66;5053531;28;19931;-60
2022/08/03 04:29:08;;;;;;;;;;;;;;;21.75;50.15;101451.03;5053117;28;19924;-56
2022/08/03 04:31:34;;;;;;;;;;;;;;;21.74;50.13;101454.69;5048264;28;19968;-53
2022/08/03 04:34:00;;;;;;;;;;;;;;;21.74;50.37;101448.47;5051486;28;19932;-55
2022/08/03 04:36:26;;;;;;;;;;;;;;;21.74;50.38;101449.34;5052050;28;20058;-54
2022/08/03 04:38:54;;;;;;;;;;;;;;;21.74;50.24;101448.47;5053260;28;20422;-53
2022/08/03 04:41:21;;;;;;;;;;;;;;;21.73;50.30;101444.97;5052506;28;19920;-54
2022/08/03 04:43:48;;;;;;;;;;;;;;;21.72;50.35;101456.66;5053187;28;19916;-58
2022/08/03 04:46:14;;;;;;;;;;;;;;;21.74;50.48;101453.81;5053179;28;19920;-57
2022/08/03 04:48:40;;;;;;;;;;;;;;;21.75;50.45;101460.88;5052998;28;19920;-57
2022/08/03 04:51:06;;;;;;;;;;;;;;;21.75;50.55;101452.84;5051275;28;19917;-56
2022/08/03 04:53:31;;;;;;;;;;;;;;;21.73;50.55;101460.19;5049874;28;19967;-59
2022/08/03 04:56:02;;;;;;;;;;;;;;;21.72;50.47;101458.47;5052632;28;19959;-53
2022/08/03 04:58:28;;;;;;;;;;;;;;;21.73;50.62;101453.00;5053023;28;19920;-56
2022/08/03 05:00:53;;;;;;;;;;;;;;;21.73;50.54;101452.13;5048528;28;19916;-61
2022/08/03 05:03:18;;;;;;;;;;;;;;;21.75;50.86;101455.53;5051173;28;19925;-61
2022/08/03 05:05:44;;;;;;;;;;;;;;;21.74;50.84;101454.69;5052842;28;19924;-57
2022/08/03 05:08:09;;;;;;;;;;;;;;;21.77;50.94;101461.59;5050020;28;19927;-54
2022/08/03 05:10:34;;;;;;;;;;;;;;;21.80;50.56;101458.63;5042122;28;20293;-53
2022/08/03 05:12:59;;;;;;;;;;;;;;;21.81;50.77;101456.78;5051569;28;19931;-56
2022/08/03 05:15:25;;;;;;;;;;;;;;;21.81;51.07;101459.44;5052774;28;20003;-56
2022/08/03 05:17:50;;;;;;;;;;;;;;;21.82;51.06;101458.47;5052694;28;20339;-55
2022/08/03 05:20:16;;;;;;;;;;;;;;;21.86;51.01;101468.72;5052240;28;20287;-59
2022/08/03 05:22:41;;;;;;;;;;;;;;;21.89;50.71;101463.09;5052491;28;19917;-58
2022/08/03 05:25:06;;;;;;;;;;;;;;;21.94;50.61;101462.66;5052525;28;19921;-59
2022/08/03 05:27:32;;;;;;;;;;;;;;;21.98;50.51;101455.19;5048586;28;19912;-60
2022/08/03 05:29:57;;;;;;;;;;;;;;;22.02;50.57;101464.59;5048278;28;19913;-60
2022/08/03 05:32:23;;;;;;;;;;;;;;;22.06;50.51;101463.31;5050012;28;19986;-60
2022/08/03 05:34:48;;;;;;;;;;;;;;;22.09;50.23;101463.03;5046332;28;19931;-57
2022/08/03 05:37:13;;;;;;;;;;;;;;;22.12;50.52;101462.75;5052089;28;19917;-57
2022/08/03 05:39:38;;;;;;;;;;;;;;;;;;5052203;28;19944;-57
2022/08/03 05:42:04;;;;;;;;;;;;;;;22.20;49.94;101465.53;5051826;28;20004;-53
2022/08/03 05:44:30;;;;;;;;;;;;;;;22.23;50.01;101473.28;5041252;28;19921;-56
2022/08/03 05:46:56;;;;;;;;;;;;;;;22.28;49.75;101474.69;5038516;28;19913;-53
2022/08/03 05:49:21;;;;;;;;;;;;;;;22.32;49.82;101465.31;5048838;28;19917;-56
2022/08/03 05:51:46;;;;;;;;;;;;;;;22.35;49.58;101467.72;5051560;28;20302;-53
2022/08/03 05:54:12;;;;;;;;;;;;;;;22.39;49.68;101474.47;5051347;28;19982;-55
2022/08/03 05:56:39;;;;;;;;;;;;;;;22.41;49.55;101472.50;5051733;28;19921;-57
2022/08/03 05:59:05;;;;;;;;;;;;;;;22.45;49.45;101473.91;5052107;28;19913;-55
2022/08/03 06:01:31;;;;;;;;;;;;;;;22.48;49.38;101478.97;5046978;28;20276;-60
2022/08/03 06:03:57;;;;;;;;;;;;;;;22.52;49.21;101477.69;5051903;28;20376;-59
2022/08/03 06:06:22;;;;;;;;;;;;;;;22.58;49.11;101480.75;5051647;28;19944;-60
2022/08/03 06:08:47;;;;;;;;;;;;;;;22.61;49.14;101477.78;5043523;28;20380;-55
2022/08/03 06:11:13;;;;;;;;;;;;;;;22.64;48.77;101470.28;5042266;28;19935;-59
2022/08/03 06:13:38;;;;;;;;;;;;;;;22.69;48.70;101469.81;5039006;28;19959;-55
2022/08/03 06:16:04;;;;;;;;;;;;;;;22.73;48.62;101475.72;5051562;28;20025;-58
2022/08/03 06:18:29;;;;;;;;;;;;;;;22.78;48.74;101474.25;5041291;28;19997;-53
2022/08/03 06:20:55;;;;;;;;;;;;;;;22.80;48.51;101474.97;5051311;28;20285;-54
2022/08/03 06:23:21;;;;;;;;;;;;;;;22.85;48.51;101474.50;5051734;28;19917;-56
2022/08/03 06:25:46;;;;;;;;;;;;;;;22.90;48.53;101468.72;5051763;28;20281;-57
2022/08/03 06:28:12;;;;;;;;;;;;;;;22.93;48.32;101469.25;5051622;28;19917;-53
2022/08/03 06:30:38;;;;;;;;;;;;;;;22.97;48.47;101467.94;5039508;28;20476;-59
2022/08/03 06:33:03;;;;;;;;;;;;;;;23.02;48.53;101475.53;5038643;28;20000;-53
2022/08/03 06:35:29;;;;;;;;;;;;;;;23.04;48.22;101465.50;5036856;28;20009;-55
2022/08/03 06:37:54;;;;;;;;;;;;;;;23.08;48.27;101466.00;5051430;28;19917;-55
2022/08/03 06:40:28;;;;;;;;;;;;;;;23.10;48.32;101472.91;5050525;28;19920;-56
2022/08/03 06:42:54;;;;;;;;;;;;;;;23.16;48.18;101470.63;5051684;28;20357;-54
2022/08/03 06:45:19;;;;;;;;;;;;;;;23.21;47.91;101473.72;5051501;28;19917;-54
2022/08/03 06:47:45;;;;;;;;;;;;;;;23.23;48.04;101467.19;5051475;28;19916;-56
2022/08/03 06:50:10;;;;;;;;;;;;;;;23.28;47.94;101474.78;5050914;28;20333;-59
2022/08/03 06:52:36;;;;;;;;;;;;;;;23.32;47.89;101469.94;5050154;28;19920;-53
2022/08/03 06:55:01;;;;;;;;;;;;;;;23.36;47.91;101468.63;5051171;28;20371;-56
2022/08/03 06:57:26;;;;;;;;;;;;;;;23.40;47.56;101470.84;5050184;28;19929;-54
2022/08/03 06:59:52;;;;;;;;;;;;;;;23.47;47.47;101478.28;5043429;28;19924;-55
2022/08/03 07:02:18;;;;;;;;;;;;;;;23.51;47.16;101475.13;5042947;28;19917;-59
2022/08/03 07:04:43;;;;;;;;;;;;;;;23.57;47.15;101473.66;5052046;28;20299;-61
2022/08/03 07:07:08;;;;;;;;;;;;;;;23.61;47.08;101480.41;5054681;28;20380;-63
2022/08/03 07:09:34;;;;;;;;;;;;;;;23.64;47.16;101480.09;5054632;28;20367;-63
2022/08/03 07:12:01;;;;;;;;;;;;;;;23.68;46.87;101481.44;5054445;28;20407;-59
2022/08/03 07:14:26;;;;;;;;;;;;;;;23.74;46.91;101483.53;5054843;28;19916;-58
2022/08/03 07:16:51;;;;;;;;;;;;;;;23.80;46.65;101479.34;5054980;28;19917;-57
2022/08/03 07:19:17;;;;;;;;;;;;;;;23.85;46.77;101479.75;5055094;28;19939;-62
2022/08/03 07:21:42;;;;;;;;;;;;;;;23.90;46.50;101473.88;5053849;28;20367;-59
2022/08/03 07:24:07;;;;;;;;;;;;;;;23.94;46.59;101474.41;5054518;28;19970;-59
2022/08/03 07:26:33;;;;;;;;;;;;;;;23.98;46.36;101471.25;5054571;28;19917;-60
2022/08/03 07:29:00;;;;;;;;;;;;;;;24.04;46.40;101461.75;5054723;28;20281;-58
2022/08/03 07:31:25;;;;;;;;;;;;;;;24.10;46.20;101473.69;5050670;28;19989;-61
2022/08/03 07:33:50;;;;;;;;;;;;;;;24.15;45.98;101465.97;5054026;28;19924;-59
2022/08/03 07:36:16;;;;;;;;;;;;;;;24.22;45.86;101468.84;5052223;28;19919;-60
2022/08/03 07:38:41;;;;;;;;;;;;;;;24.28;45.45;101466.34;5054111;28;19924;-59
2022/08/03 07:41:06;;;;;;;;;;;;;;;24.34;45.21;101465.72;5041434;28;19913;-62
2022/08/03 07:43:32;;;;;;;;;;;;;;;24.40;45.04;101476.84;5048385;28;19921;-59
2022/08/03 07:45:57;;;;;;;;;;;;;;;24.45;44.67;101471.81;5054666;28;19924;-59
2022/08/03 07:48:22;;;;;;;;;;;;;;;24.49;44.46;101468.66;5054191;28;20330;-58
2022/08/03 07:50:48;;;;;;;;;;;;;;;24.55;44.33;101475.22;5053908;28;19932;-62
2022/08/03 07:53:13;;;;;;;;;;;;;;;24.62;44.09;101478.09;5053628;28;19920;-57
2022/08/03 07:55:38;;;;;;;;;;;;;;;24.67;43.74;101473.06;5041270;28;20414;-59
2022/08/03 07:58:05;;;;;;;;;;;;;;;24.70;43.65;101470.06;5053720;28;19921;-59
2022/08/03 08:00:30;;;;;;;;;;;;;;;24.74;43.46;101466.06;5053257;28;19921;-63
2022/08/03 08:02:56;;;;;;;;;;;;;;;24.79;43.28;101465.56;5053886;28;20380;-62
2022/08/03 08:05:21;;;;;;;;;;;;;;;24.85;43.13;101470.28;5053964;28;19962;-61
2022/08/03 08:07:46;;;;;;;;;;;;;;;24.88;43.15;101459.16;5053897;28;19924;-63
2022/08/03 08:10:12;;;;;;;;;;;;;;;24.93;42.74;101464.06;5054011;28;19967;-60
2022/08/03 08:12:38;;;;;;;;;;;;;;;24.99;42.51;101468.78;5052256;28;19916;-63
2022/08/03 08:15:03;;;;;;;;;;;;;;;25.05;42.17;101461.88;5040532;28;19917;-60
2022/08/03 08:17:28;;;;;;;;;;;;;;;25.10;42.14;101462.22;5047026;28;19913;-60
2022/08/03 08:19:54;;;;;;;;;;;;;;;25.14;42.02;101463.59;5053644;28;19917;-59
2022/08/03 08:22:19;;;;;;;;;;;;;;;25.19;41.93;101463.91;5053468;28;19921;-60
2022/08/03 08:24:47;;;;;;;;;;;;;;;25.24;41.53;101466.13;5053476;28;20007;-59
2022/08/03 08:27:12;;;;;;;;;;;;;;;25.28;41.46;101462.06;5053676;28;19916;-59
2022/08/03 08:29:38;;;;;;;;;;;;;;;25.33;41.27;101458.88;5041290;28;19913;-58
2022/08/03 08:32:03;;;;;;;;;;;;;;;25.38;41.14;101459.19;5052965;28;20408;-61
2022/08/03 08:34:29;;;;;;;;;;;;;;;25.42;40.98;101458.72;5049609;28;20296;-59
2022/08/03 08:36:54;;;;;;;;;;;;;;;25.45;40.87;101462.94;5053369;28;19948;-58
2022/08/03 08:39:19;;;;;;;;;;;;;;;25.50;40.74;101459.72;5053326;28;19913;-60
2022/08/03 08:41:44;;;;;;;;;;;;;;;25.52;40.72;101460.41;5052970;28;19963;-63
2022/08/03 08:44:10;;;;;;;;;;;;;;;25.56;40.51;101459.88;5053122;28;19927;-64
2022/08/03 08:46:37;;;;;;;;;;;;;;;25.60;40.44;101451.47;5053329;28;19920;-62
2022/08/03 08:49:02;;;;;;;;;;;;;;;25.62;40.42;101447.59;5047396;28;19917;-59
2022/08/03 08:51:33;;;;;;;;;;;;;;;25.65;40.15;101454.47;5044654;28;19925;-62
2022/08/03 08:54:01;;;;;;;;;;;;;;;25.71;39.99;101454.63;5036248;28;19917;-60
2022/08/03 08:56:27;;;;;;;;;;;;;;;25.76;39.96;101456.81;5046119;28;19917;-59
2022/08/03 08:58:59;;;;;;;;;;;;;;;25.82;39.86;101458.00;5052685;28;19917;-57
2022/08/03 09:01:24;;;;;;;;;;;;;;;25.87;39.71;101456.47;5052681;28;19929;-60
2022/08/03 09:03:52;;;;;;;;;;;;;;;25.90;39.60;101459.81;5052666;28;19979;-62
2022/08/03 09:06:17;;;;;;;;;;;;;;;25.94;39.57;101458.47;5052357;28;19960;-58
2022/08/03 09:08:43;;;;;;;;;;;;;;;25.98;39.53;101457.09;5052987;28;19967;-59
2022/08/03 09:11:08;;;;;;;;;;;;;;;26.02;39.31;101464.66;5052256;28;20294;-63
2022/08/03 09:13:34;;;;;;;;;;;;;;;26.06;39.52;101462.47;5052948;28;19916;-62
2022/08/03 09:16:13;;;;;;;;;;;;;;;26.11;39.58;101457.41;5052492;28;19912;-62
2022/08/03 09:18:38;;;;;;;;;;;;;;;26.16;39.43;101448.81;5052486;28;19921;-62
2022/08/03 09:21:19;;;;;;;;;;;;;;;26.23;39.07;101459.75;5038818;28;19920;-63
2022/08/03 09:23:45;;;;;;;;;;;;;;;26.27;39.17;101451.13;5051297;28;20016;-63
2022/08/03 09:26:11;;;;;;;;;;;;;;;26.31;39.33;101457.84;5048850;28;20392;-63
2022/08/03 09:28:36;;;;;;;;;;;;;;;26.33;39.17;101455.78;5051593;28;19959;-58
2022/08/03 09:31:02;;;;;;;;;;;;;;;26.40;38.97;101455.09;5051742;28;19928;-60
2022/08/03 09:33:28;;;;;;;;;;;;;;;26.43;38.84;101454.75;5043917;28;20407;-58
2022/08/03 09:35:55;;;;;;;;;;;;;;;26.45;39.00;101442.75;5046985;28;19952;-58
2022/08/03 09:38:27;;;;;;;;;;;;;;;26.48;38.77;101445.13;5052304;28;19921;-60
2022/08/03 09:40:52;;;;;;;;;;;;;;;26.54;38.94;101450.84;5051309;28;19969;-60
2022/08/03 09:43:18;;;;;;;;;;;;;;;26.61;38.78;101449.09;5051909;28;19913;-61
2022/08/03 09:45:43;;;;;;;;;;;;;;;26.66;38.79;101454.81;5051990;28;19924;-58
2022/08/03 09:48:21;;;;;;;;;;;;;;;26.71;38.27;101448.84;5052088;28;19917;-58
2022/08/03 09:50:47;;;;;;;;;;;;;;;26.74;38.55;101440.41;5051002;28;19958;-59
2022/08/03 09:53:12;;;;;;;;;;;;;;;26.77;38.60;101445.47;5051852;28;19913;-58
2022/08/03 09:55:48;;;;;;;;;;;;;;;26.83;38.42;101439.34;5051864;28;19917;-59
2022/08/03 09:58:14;;;;;;;;;;;;;;;26.88;38.20;101446.91;5039158;28;19979;-59
2022/08/03 10:01:08;;;;;;;;;;;;;;;26.91;38.09;101438.47;5048691;28;20368;-63
2022/08/03 10:03:35;;;;;;;;;;;;;;;26.94;38.22;101435.41;5033428;28;20445;-58
2022/08/03 10:06:19;;;;;;;;;;;;;;;26.96;38.30;101441.47;5051867;28;19924;-59
2022/08/03 10:08:45;;;;;;;;;;;;;;;27.00;38.12;101431.97;5051806;28;19917;-60
2022/08/03 10:11:10;;;;;;;;;;;;;;;27.04;38.21;101433.28;5047696;28;19924;-60
2022/08/03 10:13:36;;;;;;;;;;;;;;;27.11;37.97;101430.69;5051675;28;19924;-63
2022/08/03 10:16:03;;;;;;;;;;;;;;;27.15;38.14;101431.19;5050915;28;19990;-63
2022/08/03 10:18:28;;;;;;;;;;;;;;;27.19;37.66;101437.91;5038319;28;20335;-58
2022/08/03 10:20:58;;;;;;;;;;;;;;;27.23;37.75;101437.34;5051222;28;19924;-59
2022/08/03 10:23:24;;;;;;;;;;;;;;;27.25;37.50;101431.78;5051267;28;20291;-58
2022/08/03 10:25:53;;;;;;;;;;;;;;;27.24;37.36;101435.50;5043746;28;20399;-56
2022/08/03 10:28:20;;;;;;;;;;;;;;;27.28;37.37;101430.56;5045592;28;19948;-58
2022/08/03 10:30:50;;;;;;;;;;;;;;;27.34;37.53;101429.84;5051069;28;19921;-58
2022/08/03 10:33:25;;;;;;;;;;;;;;;27.39;37.43;101422.84;5050768;28;19912;-59
2022/08/03 10:35:52;;;;;;;;;;;;;;;27.43;36.91;101417.09;5048634;28;20211;-60
2022/08/03 10:38:19;;;;;;;;;;;;;;;27.46;36.98;101416.72;5051751;28;19921;-59
2022/08/03 10:40:44;;;;;;;;;;;;;;;27.52;36.96;101407.91;5053749;28;19921;-61
2022/08/03 10:43:18;;;;;;;;;;;;;;;27.60;37.27;101407.81;5055557;28;19924;-58
2022/08/03 10:45:44;;;;;;;;;;;;;;;27.67;36.62;101413.31;5055407;28;19919;-63
2022/08/03 10:48:10;;;;;;;;;;;;;;;27.73;36.84;101406.34;5055113;28;20350;-61
2022/08/03 10:50:36;;;;;;;;;;;;;;;27.77;36.66;101407.63;5053939;28;20606;-59
2022/08/03 10:53:05;;;;;;;;;;;;;;;27.80;36.37;101407.25;5055463;28;19999;-63
2022/08/03 10:58:36;;;;;;;;;;;;;;;27.90;36.50;101394.28;5055117;28;19966;-62
2022/08/03 11:01:05;;;;;;;;;;;;;;;27.96;36.24;101396.22;5043933;28;19921;-63
2022/08/03 11:03:31;;;;;;;;;;;;;;;28.02;35.91;101401.94;5055069;28;19967;-63
2022/08/03 11:06:17;;;;;;;;;;;;;;;28.07;36.17;101394.06;5049012;28;20319;-59
2022/08/03 11:08:43;;;;;;;;;;;;;;;28.11;35.60;101403.50;5042442;28;20430;-62
2022/08/03 11:11:17;;;;;;;;;;;;;;;28.11;36.00;101396.25;5050958;28;19921;-63
2022/08/03 11:13:58;;;;;;;;;;;;;;;28.14;36.01;101395.84;5043575;28;20365;-56
2022/08/03 11:16:25;;;;;;;;;;;;;;;28.19;35.79;101391.75;5054793;28;19936;-63
2022/08/03 11:18:58;;;;;;;;;;;;;;;28.25;35.47;101394.53;5055101;28;19913;-59
2022/08/03 11:21:42;;;;;;;;;;;;;;;28.32;35.63;101391.06;5054216;28;19920;-58
2022/08/03 11:24:07;;;;;;;;;;;;;;;28.36;35.40;101385.09;5052235;28;19959;-57
2022/08/03 11:26:32;;;;;;;;;;;;;;;28.42;35.53;101388.88;5045475;28;19948;-59
2022/08/03 11:29:18;;;;;;;;;;;;;;;28.49;35.50;101384.41;5047734;28;19952;-58
2022/08/03 11:31:44;;;;;;;;;;;;;;;28.56;34.99;101390.69;5043372;28;20372;-59
2022/08/03 11:34:10;;;;;;;;;;;;;;;28.59;34.90;101384.91;5051742;28;19918;-58
2022/08/03 11:36:54;;;;;;;;;;;;;;;28.63;34.78;101385.34;5054438;28;19917;-58
2022/08/03 11:39:20;;;;;;;;;;;;;;;28.68;34.88;101384.75;5053304;28;19913;-57
2022/08/03 11:41:45;;;;;;;;;;;;;;;28.74;34.64;101381.31;5046523;28;20290;-58
2022/08/03 11:44:30;;;;;;;;;;;;;;;28.78;34.76;101377.19;5052670;28;20392;-60
2022/08/03 11:46:56;;;;;;;;;;;;;;;28.80;34.89;101374.28;5054165;28;19913;-59
2022/08/03 11:49:22;;;;;;;;;;;;;;;28.85;34.54;101371.84;5054439;28;19921;-59
2022/08/03 11:51:52;;;;;;;;;;;;;;;28.92;34.50;101366.47;5052886;28;19999;-57
2022/08/03 11:54:18;;;;;;;;;;;;;;;28.98;34.64;101366.53;5035756;28;20384;-59
2022/08/03 11:56:47;;;;;;;;;;;;;;;29.02;34.63;101361.56;5048630;28;20285;-58
2022/08/03 11:59:13;;;;;;;;;;;;;;;29.07;34.14;101356.41;5054259;28;19917;-64
2022/08/03 12:01:39;;;;;;;;;;;;;;;29.15;34.43;101356.22;5050810;28;20384;-60
2022/08/03 12:04:05;;;;;;;;;;;;;;;29.25;33.83;101355.06;5043613;28;20380;-63
2022/08/03 12:06:53;;;;;;;;;;;;;;;29.32;33.92;101358.63;5053906;28;20021;-63
2022/08/03 12:09:16;;;;;;;;;;;;;;;29.41;33.63;101359.34;5053866;28;19949;-62
2022/08/03 12:11:41;;;;;;;;;;;;;;;29.48;33.54;101363.78;5045391;28;20363;-63
2022/08/03 12:14:06;;;;;;;;;;;;;;;29.55;33.84;101363.81;5038689;28;20353;-59
2022/08/03 12:16:32;;;;;;;;;;;;;;;29.57;33.27;101363.63;5052482;28;20501;-59
2022/08/03 12:19:02;;;;;;;;;;;;;;;29.59;33.60;101364.25;5054198;28;19920;-62
2022/08/03 12:21:28;;;;;;;;;;;;;;;29.64;33.33;101359.06;5053257;28;19975;-62
2022/08/03 12:24:02;;;;;;;;;;;;;;;29.69;33.52;101362.03;5053400;28;20312;-59
2022/08/03 12:26:28;;;;;;;;;;;;;;;29.74;33.19;101359.53;5052866;28;19924;-59
2022/08/03 12:28:53;;;;;;;;;;;;;;;29.75;33.10;101347.63;5044510;28;20030;-59
2022/08/03 12:31:18;;;;;;;;;;;;;;;29.78;33.14;101355.38;5048539;28;20012;-56
2022/08/03 12:34:13;;;;;;;;;;;;;;;29.81;33.27;101349.56;5040316;28;19917;-59
2022/08/03 12:36:49;;;;;;;;;;;;;;;29.85;33.06;101346.44;5032156;28;19913;-58
2022/08/03 12:39:14;;;;;;;;;;;;;;;29.87;33.13;101336.22;5053734;28;19913;-59
2022/08/03 12:41:39;;;;;;;;;;;;;;;29.94;32.93;101343.34;5052992;28;20479;-58
2022/08/03 12:44:06;;;;;;;;;;;;;;;30.03;32.63;101338.59;5053156;28;20589;-58
2022/08/03 12:46:35;;;;;;;;;;;;;;;30.08;32.55;101341.53;5053274;28;19943;-59